createdAt,value
2023-03-12T00:01:13.629Z,2.28
2023-03-12T00:03:40.039Z,1.50
2023-03-12T00:06:10.738Z,1.73
2023-03-12T00:08:37.300Z,1.83
2023-03-12T00:11:12.669Z,1.33
2023-03-12T00:13:39.930Z,1.63
2023-03-12T00:16:12.323Z,2.40
2023-03-12T00:18:39.478Z,1.70
2023-03-12T00:21:06.711Z,2.10
2023-03-12T00:23:33.188Z,1.77
2023-03-12T00:26:11.158Z,1.70
2023-03-12T00:28:38.397Z,1.63
2023-03-12T00:31:18.353Z,1.65
2023-03-12T00:33:45.536Z,1.83
2023-03-12T00:36:12.382Z,2.00
2023-03-12T00:38:38.665Z,2.13
2023-03-12T00:41:05.009Z,1.60
2023-03-12T00:43:31.303Z,1.85
2023-03-12T00:45:57.726Z,1.65
2023-03-12T00:48:24.034Z,2.00
2023-03-12T00:50:50.342Z,1.77
2023-03-12T00:53:16.693Z,1.85
2023-03-12T00:58:09.385Z,1.80
2023-03-12T01:00:35.699Z,2.10
2023-03-12T01:03:02.074Z,1.95
2023-03-12T01:05:28.572Z,1.77
2023-03-12T01:07:55.138Z,1.58
2023-03-12T01:10:21.914Z,2.03
2023-03-12T01:12:48.209Z,1.70
2023-03-12T01:15:18.946Z,1.65
2023-03-12T01:17:45.235Z,1.73
2023-03-12T01:20:12.002Z,1.60
2023-03-12T01:22:38.590Z,1.30
2023-03-12T01:25:05.512Z,1.95
2023-03-12T01:27:31.855Z,2.03
2023-03-12T01:29:58.132Z,1.77
2023-03-12T01:32:24.483Z,1.60
2023-03-12T01:34:50.826Z,1.90
2023-03-12T01:37:17.163Z,1.77
2023-03-12T01:39:43.532Z,1.92
2023-03-12T01:42:09.875Z,1.70
2023-03-12T01:45:27.228Z,1.73
2023-03-12T01:47:53.562Z,1.52
2023-03-12T01:50:20.033Z,2.08
2023-03-12T01:52:46.422Z,1.90
2023-03-12T01:55:16.023Z,1.67
2023-03-12T01:57:57.487Z,1.92
2023-03-12T02:00:26.707Z,2.05
2023-03-12T02:02:57.850Z,2.40
2023-03-12T02:05:37.082Z,1.80
2023-03-12T02:08:03.519Z,1.92
2023-03-12T02:10:29.846Z,1.90
2023-03-12T02:12:56.165Z,2.50
2023-03-12T02:15:22.742Z,2.20
2023-03-12T02:17:49.158Z,1.98
2023-03-12T02:20:22.174Z,2.13
2023-03-12T02:22:57.374Z,1.58
2023-03-12T02:25:39.784Z,2.00
2023-03-12T02:28:09.623Z,2.10
2023-03-12T02:30:36.952Z,2.10
2023-03-12T02:33:07.417Z,2.40
2023-03-12T02:35:34.296Z,2.17
2023-03-12T02:38:00.797Z,2.80
2023-03-12T02:40:29.714Z,2.30
2023-03-12T02:42:56.845Z,2.83
2023-03-12T02:45:25.751Z,2.42
2023-03-12T02:47:52.867Z,1.80
2023-03-12T02:50:19.343Z,1.95
2023-03-12T02:52:45.609Z,1.90
2023-03-12T02:55:12.036Z,2.30
2023-03-12T02:57:38.382Z,2.17
2023-03-12T03:00:07.835Z,1.92
2023-03-12T03:02:34.108Z,2.50
2023-03-12T03:05:00.405Z,2.22
2023-03-12T03:07:26.726Z,2.33
2023-03-12T03:09:53.031Z,1.73
2023-03-12T03:12:19.325Z,2.10
2023-03-12T03:14:45.665Z,2.15
2023-03-12T03:17:11.993Z,2.30
2023-03-12T03:19:38.287Z,2.45
2023-03-12T03:22:04.646Z,2.38
2023-03-12T03:24:30.935Z,2.05
2023-03-12T03:26:57.266Z,2.03
2023-03-12T03:29:23.564Z,2.20
2023-03-12T03:31:49.866Z,2.20
2023-03-12T03:34:16.165Z,2.30
2023-03-12T03:36:42.465Z,2.15
2023-03-12T03:39:08.778Z,2.63
2023-03-12T03:41:35.148Z,2.30
2023-03-12T03:44:01.558Z,2.75
2023-03-12T03:46:27.907Z,2.67
2023-03-12T03:48:54.296Z,2.65
2023-03-12T03:51:20.620Z,2.50
2023-03-12T03:53:46.937Z,2.65
2023-03-12T03:56:15.509Z,2.38
2023-03-12T03:58:42.256Z,2.15
2023-03-12T04:01:08.719Z,2.63
2023-03-12T04:03:35.673Z,2.88
2023-03-12T04:06:04.984Z,2.38
2023-03-12T04:08:32.308Z,2.50
2023-03-12T04:10:58.650Z,2.72
2023-03-12T04:13:24.966Z,2.95
2023-03-12T04:15:53.418Z,2.75
2023-03-12T04:18:20.561Z,2.60
2023-03-12T04:20:46.922Z,2.83
2023-03-12T04:23:13.213Z,2.60
2023-03-12T04:25:41.472Z,2.85
2023-03-12T04:28:07.798Z,2.30
2023-03-12T04:30:34.498Z,2.90
2023-03-12T04:33:00.795Z,2.63
2023-03-12T04:35:27.112Z,3.03
2023-03-12T04:37:53.434Z,2.33
2023-03-12T04:40:19.866Z,2.97
2023-03-12T04:42:46.181Z,2.90
2023-03-12T04:45:12.537Z,2.75
2023-03-12T04:47:38.898Z,2.60
2023-03-12T04:50:05.653Z,2.78
2023-03-12T04:52:31.930Z,2.50
2023-03-12T04:54:58.287Z,2.75
2023-03-12T04:57:24.839Z,3.10
2023-03-12T04:59:51.237Z,3.72
2023-03-12T05:02:17.621Z,3.42
2023-03-12T05:04:43.977Z,2.58
2023-03-12T05:07:10.345Z,2.97
2023-03-12T05:09:36.643Z,3.20
2023-03-12T05:12:03.186Z,2.95
2023-03-12T05:14:29.491Z,3.28
2023-03-12T05:16:55.816Z,3.17
2023-03-12T05:19:22.158Z,3.42
2023-03-12T05:21:48.549Z,3.47
2023-03-12T05:24:15.324Z,3.28
2023-03-12T05:26:42.690Z,4.07
2023-03-12T05:29:09.043Z,3.72
2023-03-12T05:31:35.612Z,3.90
2023-03-12T05:34:03.498Z,3.63
2023-03-12T05:36:29.841Z,3.47
2023-03-12T05:38:56.158Z,3.78
2023-03-12T05:41:28.057Z,4.43
2023-03-12T05:43:55.863Z,4.63
2023-03-12T05:46:23.929Z,4.05
2023-03-12T05:48:50.717Z,4.45
2023-03-12T05:51:17.152Z,4.00
2023-03-12T05:53:43.501Z,4.55
2023-03-12T05:56:13.762Z,4.35
2023-03-12T05:58:40.452Z,4.25
2023-03-12T06:01:22.191Z,3.95
2023-03-12T06:03:49.471Z,5.18
2023-03-12T06:06:16.758Z,3.97
2023-03-12T06:08:43.862Z,4.50
2023-03-12T06:11:10.533Z,4.30
2023-03-12T06:13:37.044Z,4.53
2023-03-12T06:16:17.559Z,4.28
2023-03-12T06:18:43.942Z,5.28
2023-03-12T06:21:14.604Z,4.75
2023-03-12T06:23:42.143Z,4.78
2023-03-12T06:28:36.091Z,4.32
2023-03-12T06:31:02.792Z,4.60
2023-03-12T06:33:29.694Z,4.35
2023-03-12T06:35:57.513Z,4.45
2023-03-12T06:38:24.166Z,4.25
2023-03-12T06:40:55.962Z,4.72
2023-03-12T06:43:27.101Z,4.18
2023-03-12T06:45:58.323Z,4.47
2023-03-12T06:48:26.329Z,4.25
2023-03-12T06:50:53.308Z,3.75
2023-03-12T06:53:20.984Z,3.78
2023-03-12T06:55:50.306Z,3.92
2023-03-12T06:58:17.108Z,3.35
2023-03-12T07:00:43.484Z,3.38
2023-03-12T07:03:09.806Z,3.55
2023-03-12T07:05:36.119Z,3.25
2023-03-12T07:08:05.692Z,3.80
2023-03-12T07:10:32.064Z,3.15
2023-03-12T07:12:58.370Z,3.80
2023-03-12T07:15:24.723Z,3.53
2023-03-12T07:17:51.147Z,3.92
2023-03-12T07:20:17.762Z,3.67
2023-03-12T07:22:44.077Z,3.50
2023-03-12T07:25:10.938Z,3.50
2023-03-12T07:27:37.294Z,3.70
2023-03-12T07:30:04.478Z,3.13
2023-03-12T07:32:30.806Z,3.63
2023-03-12T07:34:57.125Z,3.53
2023-03-12T07:37:23.733Z,3.72
2023-03-12T07:39:50.057Z,4.10
2023-03-12T07:42:16.485Z,3.50
2023-03-12T07:44:42.840Z,3.63
2023-03-12T07:47:22.789Z,3.47
2023-03-12T07:49:50.247Z,3.17
2023-03-12T07:52:16.606Z,3.88
2023-03-12T07:54:42.989Z,3.40
2023-03-12T07:57:09.452Z,3.65
2023-03-12T07:59:35.932Z,3.67
2023-03-12T08:02:02.414Z,3.13
2023-03-12T08:04:28.826Z,3.53
2023-03-12T08:06:55.261Z,3.80
2023-03-12T08:09:21.592Z,2.92
2023-03-12T08:11:48.249Z,3.75
2023-03-12T08:14:14.666Z,3.42
2023-03-12T08:16:40.999Z,3.25
2023-03-12T08:19:07.324Z,2.90
2023-03-12T08:21:33.631Z,3.50
2023-03-12T08:23:59.968Z,3.80
2023-03-12T08:26:26.321Z,3.10
2023-03-12T08:28:52.631Z,3.50
2023-03-12T08:31:18.970Z,4.10
2023-03-12T08:33:45.296Z,4.38
2023-03-12T08:36:11.571Z,2.95
2023-03-12T08:38:37.915Z,2.72
2023-03-12T08:41:04.278Z,3.90
2023-03-12T08:43:30.754Z,3.00
2023-03-12T08:45:59.158Z,3.05
2023-03-12T08:48:26.130Z,3.75
2023-03-12T08:50:55.622Z,2.92
2023-03-12T08:53:24.426Z,3.35
2023-03-12T08:55:53.599Z,2.80
2023-03-12T08:58:20.915Z,3.10
2023-03-12T09:00:47.342Z,3.10
2023-03-12T09:03:13.661Z,3.33
2023-03-12T09:05:43.823Z,3.08
2023-03-12T09:08:11.111Z,3.03
2023-03-12T09:10:38.399Z,2.88
2023-03-12T09:13:05.550Z,2.65
2023-03-12T09:15:31.943Z,3.10
2023-03-12T09:17:58.274Z,2.90
2023-03-12T09:20:25.368Z,3.08
2023-03-12T09:22:51.674Z,2.80
2023-03-12T09:25:18.197Z,2.58
2023-03-12T09:27:47.323Z,2.35
2023-03-12T09:30:16.979Z,2.22
2023-03-12T09:32:43.730Z,2.40
2023-03-12T09:35:10.039Z,2.63
2023-03-12T09:37:36.371Z,2.28
2023-03-12T09:40:04.120Z,1.92
2023-03-12T09:42:41.411Z,1.77
2023-03-12T09:45:14.369Z,2.30
2023-03-12T09:47:49.870Z,1.83
2023-03-12T09:50:30.033Z,2.10
2023-03-12T09:53:03.496Z,2.45
2023-03-12T09:58:02.608Z,1.70
2023-03-12T10:00:34.675Z,1.55
2023-03-12T10:03:27.025Z,2.05
2023-03-12T10:06:17.493Z,1.60
2023-03-12T10:09:02.120Z,1.80
2023-03-12T10:12:05.920Z,1.50
2023-03-12T10:17:02.096Z,1.67
2023-03-12T10:19:46.170Z,1.63
2023-03-12T10:22:43.316Z,1.33
2023-03-12T10:25:44.470Z,1.30
2023-03-12T10:28:34.181Z,1.10
2023-03-12T10:31:12.163Z,1.35
2023-03-12T10:33:56.760Z,1.77
2023-03-12T10:36:28.984Z,1.58
2023-03-12T10:38:55.722Z,1.40
2023-03-12T10:41:25.664Z,1.55
2023-03-12T10:43:52.744Z,1.60
2023-03-12T10:46:37.421Z,1.42
2023-03-12T10:49:37.006Z,1.67
2023-03-12T10:52:06.087Z,1.70
2023-03-12T10:54:36.989Z,2.22
2023-03-12T10:57:04.407Z,1.92
2023-03-12T10:59:34.513Z,1.90
2023-03-12T11:02:04.028Z,1.92
2023-03-12T11:04:32.418Z,2.65
2023-03-12T11:07:12.311Z,3.80
2023-03-12T11:09:38.692Z,2.00
2023-03-12T11:12:27.735Z,2.17
2023-03-12T11:14:54.100Z,1.60
2023-03-12T11:17:26.016Z,2.40
2023-03-12T11:19:52.696Z,2.47
2023-03-12T11:22:33.903Z,3.50
2023-03-12T11:25:02.430Z,1.90
2023-03-12T11:27:44.591Z,2.28
2023-03-12T11:30:15.071Z,1.75
2023-03-12T11:32:47.034Z,1.75
2023-03-12T11:35:16.847Z,1.67
2023-03-12T11:38:14.034Z,1.33
2023-03-12T11:40:58.724Z,1.60
2023-03-12T11:43:46.549Z,2.00
2023-03-12T11:46:26.936Z,1.63
2023-03-12T11:49:06.025Z,1.90
2023-03-12T11:51:56.690Z,2.00
2023-03-12T11:54:48.083Z,2.28
2023-03-12T11:57:29.642Z,2.25
2023-03-12T12:00:16.192Z,2.35
2023-03-12T12:03:24.040Z,2.92
2023-03-12T12:06:12.038Z,2.42
2023-03-12T12:08:43.793Z,2.55
2023-03-12T12:11:18.016Z,2.58
2023-03-12T12:14:18.837Z,2.40
2023-03-12T12:17:10.100Z,2.75
2023-03-12T12:19:39.303Z,2.65
2023-03-12T12:22:31.759Z,2.75
2023-03-12T12:25:29.814Z,2.70
2023-03-12T12:28:08.144Z,2.60
2023-03-12T12:30:57.746Z,2.75
2023-03-12T12:33:48.774Z,2.20
2023-03-12T12:36:15.154Z,2.03
2023-03-12T12:38:54.753Z,2.63
2023-03-12T12:41:22.957Z,2.63
2023-03-12T12:43:50.354Z,2.95
2023-03-12T12:46:25.669Z,2.22
2023-03-12T12:49:12.121Z,2.60
2023-03-12T12:51:49.871Z,3.08
2023-03-12T12:54:41.248Z,2.60
2023-03-12T12:57:23.171Z,2.60
2023-03-12T13:00:14.766Z,2.55
2023-03-12T13:02:47.363Z,2.10
2023-03-12T13:05:36.241Z,2.30
2023-03-12T13:08:03.853Z,2.45
2023-03-12T13:10:32.900Z,2.25
2023-03-12T13:13:20.753Z,1.95
2023-03-12T13:15:47.986Z,1.90
2023-03-12T13:21:06.751Z,2.50
2023-03-12T13:23:57.672Z,2.75
2023-03-12T13:26:50.265Z,2.80
2023-03-12T13:29:30.474Z,2.40
2023-03-12T13:31:57.503Z,2.45
2023-03-12T13:34:25.126Z,2.20
2023-03-12T13:36:57.981Z,2.17
2023-03-12T13:39:37.629Z,2.90
2023-03-12T13:42:24.455Z,2.42
2023-03-12T13:44:52.354Z,2.67
2023-03-12T13:47:26.659Z,1.80
2023-03-12T13:50:00.301Z,2.30
2023-03-12T13:52:40.259Z,1.83
2023-03-12T13:55:18.751Z,1.73
2023-03-12T13:57:53.305Z,2.25
2023-03-12T14:00:56.733Z,2.15
2023-03-12T14:05:58.312Z,2.58
2023-03-12T14:08:46.096Z,2.42
2023-03-12T14:11:18.146Z,2.15
2023-03-12T14:14:05.546Z,2.30
2023-03-12T14:16:42.920Z,3.03
2023-03-12T14:19:13.340Z,3.47
2023-03-12T14:21:43.632Z,2.22
2023-03-12T14:24:24.495Z,1.85
2023-03-12T14:26:51.818Z,1.80
2023-03-12T14:29:27.747Z,2.30
2023-03-12T14:31:58.681Z,1.90
2023-03-12T14:34:31.732Z,2.38
2023-03-12T14:37:13.338Z,2.38
2023-03-12T14:39:46.049Z,2.10
2023-03-12T14:42:21.529Z,2.45
2023-03-12T14:45:02.751Z,1.98
2023-03-12T14:47:29.607Z,1.65
2023-03-12T14:49:57.776Z,1.45
2023-03-12T14:52:28.266Z,1.60
2023-03-12T14:55:07.803Z,1.50
2023-03-12T14:57:35.016Z,1.60
2023-03-12T15:00:01.781Z,1.75
2023-03-12T15:02:31.024Z,1.35
2023-03-12T15:05:01.307Z,1.77
2023-03-12T15:07:32.315Z,1.50
2023-03-12T15:09:58.840Z,1.52
2023-03-12T15:12:37.073Z,1.30
2023-03-12T15:15:08.202Z,1.83
2023-03-12T15:17:35.221Z,1.92
2023-03-12T15:20:05.524Z,1.45
2023-03-12T15:22:32.586Z,1.40
2023-03-12T15:25:03.129Z,1.55
2023-03-12T15:27:29.490Z,1.30
2023-03-12T15:29:58.069Z,1.30
2023-03-12T15:32:25.708Z,1.42
2023-03-12T15:34:54.765Z,1.75
2023-03-12T15:37:33.566Z,1.73
2023-03-12T15:40:02.775Z,1.92
2023-03-12T15:42:29.372Z,2.00
2023-03-12T15:44:58.074Z,2.03
2023-03-12T15:47:28.008Z,1.85
2023-03-12T15:49:58.004Z,1.90
2023-03-12T15:52:29.431Z,1.92
2023-03-12T15:55:14.043Z,2.00
2023-03-12T15:57:55.206Z,1.70
2023-03-12T16:00:41.845Z,2.03
2023-03-12T16:03:19.000Z,1.95
2023-03-12T16:05:45.575Z,2.33
2023-03-12T16:08:20.802Z,2.00
2023-03-12T16:10:49.282Z,2.47
2023-03-12T16:13:25.312Z,2.10
2023-03-12T16:15:51.868Z,2.08
2023-03-12T16:18:20.379Z,2.20
2023-03-12T16:20:48.505Z,2.47
2023-03-12T16:23:15.701Z,2.13
2023-03-12T16:25:47.812Z,4.85
2023-03-12T16:28:16.688Z,3.22
2023-03-12T16:30:43.006Z,2.45
2023-03-12T16:33:17.976Z,2.58
2023-03-12T16:35:45.066Z,2.90
2023-03-12T16:38:11.445Z,2.78
2023-03-12T16:40:42.461Z,3.35
2023-03-12T16:43:16.140Z,3.13
2023-03-12T16:45:44.354Z,2.70
2023-03-12T16:48:15.601Z,2.83
2023-03-12T16:50:50.254Z,2.95
2023-03-12T16:53:16.967Z,3.13
2023-03-12T16:55:49.724Z,3.05
2023-03-12T16:58:18.312Z,2.80
2023-03-12T17:00:45.645Z,3.92
2023-03-12T17:08:10.036Z,2.67
2023-03-12T17:10:36.401Z,3.30
2023-03-12T17:13:02.758Z,3.55
2023-03-12T17:15:29.376Z,3.20
2023-03-12T17:17:56.794Z,3.58
2023-03-12T17:20:24.661Z,3.65
2023-03-12T17:22:51.006Z,3.42
2023-03-12T17:25:24.821Z,3.72
2023-03-12T17:27:51.611Z,4.03
2023-03-12T17:30:18.449Z,4.10
2023-03-12T17:32:45.211Z,4.07
2023-03-12T17:35:11.601Z,4.20
2023-03-12T17:37:37.952Z,4.05
2023-03-12T17:40:04.831Z,3.83
2023-03-12T17:42:31.129Z,4.18
2023-03-12T17:44:57.444Z,4.22
2023-03-12T17:47:23.793Z,3.72
2023-03-12T17:49:50.151Z,3.92
2023-03-12T17:52:16.436Z,4.00
2023-03-12T17:54:42.780Z,4.43
2023-03-12T17:57:09.084Z,3.63
2023-03-12T17:59:35.398Z,4.10
2023-03-12T18:02:01.855Z,3.50
2023-03-12T18:04:28.365Z,3.67
2023-03-12T18:06:54.772Z,4.10
2023-03-12T18:09:21.208Z,4.10
2023-03-12T18:11:47.552Z,3.50
2023-03-12T18:14:13.827Z,4.15
2023-03-12T18:16:40.158Z,3.78
2023-03-12T18:19:06.457Z,4.57
2023-03-12T18:21:32.719Z,3.95
2023-03-12T18:24:02.063Z,4.63
2023-03-12T18:26:34.489Z,4.45
2023-03-12T18:29:00.802Z,5.03
2023-03-12T18:31:28.027Z,4.80
2023-03-12T18:33:54.362Z,4.30
2023-03-12T18:36:20.914Z,4.78
2023-03-12T18:38:47.236Z,5.43
2023-03-12T18:41:14.118Z,4.75
2023-03-12T18:43:41.475Z,4.82
2023-03-12T18:46:08.538Z,5.60
2023-03-12T18:48:35.760Z,5.95
2023-03-12T18:51:02.050Z,4.28
2023-03-12T18:53:28.369Z,5.35
2023-03-12T18:55:58.399Z,5.22
2023-03-12T18:58:27.009Z,5.18
2023-03-12T19:00:57.658Z,4.97
2023-03-12T19:03:25.553Z,5.25
2023-03-12T19:06:08.007Z,5.90
2023-03-12T19:08:34.998Z,5.22
2023-03-12T19:11:04.676Z,5.57
2023-03-12T19:13:31.167Z,6.43
2023-03-12T19:15:59.119Z,5.80
2023-03-12T19:18:25.519Z,5.85
2023-03-12T19:20:51.856Z,6.78
2023-03-12T19:23:18.328Z,5.60
2023-03-12T19:25:44.872Z,6.25
2023-03-12T19:28:14.094Z,5.93
2023-03-12T19:30:40.422Z,5.95
2023-03-12T19:33:06.860Z,6.45
2023-03-12T19:35:33.287Z,5.80
2023-03-12T19:37:59.612Z,6.15
2023-03-12T19:40:26.003Z,6.38
2023-03-12T19:42:52.316Z,6.28
2023-03-12T19:45:18.623Z,6.10
2023-03-12T19:47:44.995Z,6.93
2023-03-12T19:50:12.117Z,6.85
2023-03-12T19:52:38.462Z,7.38
2023-03-12T19:55:05.860Z,6.25
2023-03-12T19:59:59.143Z,6.30
2023-03-12T20:02:25.621Z,6.10
2023-03-12T20:04:51.966Z,5.95
2023-03-12T20:07:18.259Z,6.72
2023-03-12T20:09:44.579Z,6.80
2023-03-12T20:12:11.000Z,7.93
2023-03-12T20:14:37.399Z,7.53
2023-03-12T20:17:03.703Z,7.03
2023-03-12T20:19:29.987Z,7.38
2023-03-12T20:21:56.259Z,7.35
2023-03-12T20:24:22.631Z,8.13
2023-03-12T20:26:48.941Z,8.07
2023-03-12T20:29:15.462Z,8.27
2023-03-12T20:31:42.769Z,8.27
2023-03-12T20:34:09.045Z,8.48
2023-03-12T20:36:35.381Z,8.93
2023-03-12T20:39:01.690Z,9.02
2023-03-12T20:41:28.029Z,8.52
2023-03-12T20:43:55.799Z,9.07
2023-03-12T20:46:22.279Z,9.45
2023-03-12T20:48:48.743Z,8.55
2023-03-12T20:51:15.315Z,9.63
2023-03-12T20:53:41.678Z,9.90
2023-03-12T20:56:08.657Z,9.32
2023-03-12T20:58:35.234Z,9.57
2023-03-12T21:01:02.344Z,9.35
2023-03-12T21:03:28.932Z,8.98
2023-03-12T21:05:57.325Z,9.07
2023-03-12T21:08:24.838Z,8.52
2023-03-12T21:10:51.794Z,9.88
2023-03-12T21:13:19.349Z,8.93
2023-03-12T21:15:45.766Z,10.32
2023-03-12T21:18:12.396Z,10.57
2023-03-12T21:20:40.849Z,10.15
2023-03-12T21:23:09.387Z,10.07
2023-03-12T21:25:37.290Z,9.73
2023-03-12T21:28:05.352Z,9.85
2023-03-12T21:30:35.282Z,10.32
2023-03-12T21:33:02.263Z,9.82
2023-03-12T21:35:28.908Z,9.75
2023-03-12T21:37:55.260Z,9.95
2023-03-12T21:40:22.811Z,10.48
2023-03-12T21:42:49.175Z,9.40
2023-03-12T21:45:15.490Z,10.73
2023-03-12T21:47:41.794Z,10.00
2023-03-12T21:50:09.712Z,10.88
2023-03-12T21:52:35.995Z,11.13
2023-03-12T21:55:02.284Z,9.70
2023-03-12T21:57:28.583Z,10.07
2023-03-12T21:59:54.884Z,10.15
2023-03-12T22:02:21.185Z,9.00
2023-03-12T22:04:47.509Z,9.65
2023-03-12T22:07:13.848Z,9.85
2023-03-12T22:09:40.150Z,9.50
2023-03-12T22:12:06.657Z,9.95
2023-03-12T22:14:32.967Z,9.40
2023-03-12T22:16:59.289Z,9.68
2023-03-12T22:19:25.741Z,9.40
2023-03-12T22:21:52.079Z,10.70
2023-03-12T22:24:18.463Z,10.13
2023-03-12T22:26:46.067Z,10.32
2023-03-12T22:29:14.919Z,10.63
2023-03-12T22:31:41.316Z,10.52
2023-03-12T22:34:07.685Z,9.60
2023-03-12T22:36:34.025Z,9.50
2023-03-12T22:39:00.379Z,9.95
2023-03-12T22:41:28.428Z,9.68
2023-03-12T22:43:56.927Z,10.20
2023-03-12T22:46:25.526Z,9.48
2023-03-12T22:48:54.066Z,10.05
2023-03-12T22:51:20.433Z,9.38
2023-03-12T22:53:46.796Z,8.70
2023-03-12T22:56:13.941Z,8.75
2023-03-12T22:58:40.793Z,9.32
2023-03-12T23:01:12.291Z,9.30
2023-03-12T23:03:40.507Z,9.13
2023-03-12T23:06:15.468Z,9.30
2023-03-12T23:08:41.947Z,9.23
2023-03-12T23:11:09.752Z,8.82
2023-03-12T23:13:38.816Z,8.77
2023-03-12T23:16:10.362Z,9.00
2023-03-12T23:18:36.977Z,9.00
2023-03-12T23:21:07.174Z,8.80
2023-03-12T23:23:34.120Z,9.10
2023-03-12T23:26:01.678Z,9.07
2023-03-12T23:28:29.511Z,8.23
2023-03-12T23:31:04.491Z,8.68
2023-03-12T23:33:34.106Z,8.63
2023-03-12T23:36:03.396Z,9.07
2023-03-12T23:38:31.186Z,8.73
2023-03-12T23:41:05.828Z,7.90
2023-03-12T23:43:32.450Z,7.80
2023-03-12T23:46:00.783Z,7.38
2023-03-12T23:48:28.589Z,7.95
2023-03-12T23:51:02.793Z,7.97
2023-03-12T23:53:29.125Z,7.25
2023-03-12T23:55:57.312Z,7.85
2023-03-12T23:58:24.955Z,7.72
